Time;durP1;ratioP1;P1;durP2;ratioP2;P2;SDS_P1;SDS_P2;PMS_P1;PMS_P2;Temp;Humidity;BMP_temperature;BMP_pressure;BME280_temperature;BME280_humidity;BME280_pressure;Samples;Min_cycle;Max_cycle;Signal;HPM_P1;HPM_P2
2021/08/25 00:00:54;;;;;;;6.80;6.13;;;;;;;19.37;100.00;96891.88;5012843;28;20488;-61
2021/08/25 00:03:23;;;;;;;7.95;6.55;;;;;;;18.98;100.00;96895.75;4998728;28;20075;-60
2021/08/25 00:05:52;;;;;;;8.77;6.82;;;;;;;19.39;100.00;96890.69;4989226;28;20321;-60
2021/08/25 00:08:21;;;;;;;8.07;6.82;;;;;;;19.38;100.00;96896.22;5009145;28;20449;-57
2021/08/25 00:10:49;;;;;;;10.10;7.70;;;;;;;19.29;100.00;96895.50;5005957;28;20058;-57
2021/08/25 00:13:18;;;;;;;7.82;7.03;;;;;;;18.97;100.00;96897.59;5005980;28;20073;-60
2021/08/25 00:15:47;;;;;;;10.35;7.03;;;;;;;18.47;100.00;96895.66;5006377;28;20473;-59
2021/08/25 00:18:17;;;;;;;7.80;6.85;;;;;;;18.88;100.00;96893.38;5005728;28;20447;-59
2021/08/25 00:20:45;;;;;;;9.45;7.25;;;;;;;18.67;100.00;96893.28;5006196;28;20040;-58
2021/08/25 00:23:14;;;;;;;7.95;6.65;;;;;;;18.83;100.00;96890.44;5008798;28;20042;-60
2021/08/25 00:25:42;;;;;;;8.80;7.30;;;;;;;19.07;100.00;96894.66;5003183;28;20058;-60
2021/08/25 00:28:11;;;;;;;9.07;6.93;;;;;;;19.19;100.00;96893.13;5004773;28;20072;-60
2021/08/25 00:30:39;;;;;;;10.40;7.03;;;;;;;18.75;100.00;96893.19;5004473;28;20097;-60
2021/08/25 00:33:07;;;;;;;7.40;6.57;;;;;;;18.80;100.00;96887.31;5002427;28;20080;-60
2021/08/25 00:35:37;;;;;;;8.18;7.10;;;;;;;18.86;100.00;96890.06;5000347;28;20605;-60
2021/08/25 00:38:06;;;;;;;7.55;6.32;;;;;;;18.55;100.00;96892.06;5006710;28;20065;-60
2021/08/25 00:40:34;;;;;;;9.45;6.40;;;;;;;18.60;100.00;96882.50;5004061;28;20061;-60
2021/08/25 00:43:06;;;;;;;9.13;6.47;;;;;;;18.71;100.00;96883.88;5022406;28;20064;-60
2021/08/25 00:45:36;;;;;;;7.25;6.32;;;;;;;18.58;100.00;96881.88;5004549;28;20061;-59
2021/08/25 00:48:05;;;;;;;7.10;6.20;;;;;;;18.61;100.00;96880.63;5004090;28;20137;-58
2021/08/25 00:50:35;;;;;;;11.00;7.20;;;;;;;18.41;100.00;96877.69;5003431;28;20069;-60
2021/08/25 00:53:06;;;;;;;12.32;7.22;;;;;;;18.86;100.00;96883.91;5009087;28;20081;-59
2021/08/25 00:55:35;;;;;;;9.15;6.88;;;;;;;18.71;100.00;96876.69;5003495;28;20072;-60
2021/08/25 00:58:04;;;;;;;7.78;6.93;;;;;;;18.63;100.00;96879.44;5002505;28;20077;-58
2021/08/25 01:00:33;;;;;;;8.57;7.15;;;;;;;18.73;100.00;96876.53;5005727;28;20104;-60
2021/08/25 01:03:04;;;;;;;9.45;7.43;;;;;;;18.81;100.00;96871.06;5006463;28;20065;-60
2021/08/25 01:05:36;;;;;;;12.75;7.55;;;;;;;18.37;100.00;96871.06;5002588;28;20048;-59
2021/08/25 01:08:08;;;;;;;10.73;7.47;;;;;;;18.78;100.00;96879.47;5006087;28;20500;-60
2021/08/25 01:10:36;;;;;;;9.68;7.88;;;;;;;18.17;100.00;96868.09;5004954;28;20073;-58
2021/08/25 01:13:06;;;;;;;9.23;7.20;;;;;;;18.52;100.00;96876.44;5003616;28;20061;-60
2021/08/25 01:15:35;;;;;;;9.15;7.60;;;;;;;18.65;100.00;96871.25;5005158;28;20064;-60
2021/08/25 01:18:06;;;;;;;9.23;7.28;;;;;;;18.34;100.00;96871.41;5011976;28;20065;-57
2021/08/25 01:20:36;;;;;;;9.15;7.63;;;;;;;18.41;100.00;96872.34;5010720;28;20080;-58
2021/08/25 01:23:06;;;;;;;10.07;7.57;;;;;;;18.72;100.00;96862.34;5006885;28;20072;-59
2021/08/25 01:25:35;;;;;;;11.38;7.43;;;;;;;18.46;100.00;96867.28;5011419;28;20064;-60
2021/08/25 01:28:05;;;;;;;11.30;8.50;;;;;;;18.35;100.00;96857.91;5000378;28;20069;-60
2021/08/25 01:30:36;;;;;;;8.43;7.43;;;;;;;18.15;100.00;96860.28;5004271;28;20053;-60
2021/08/25 01:33:05;;;;;;;13.80;8.32;;;;;;;18.29;100.00;96861.31;5003146;28;20061;-60
2021/08/25 01:35:34;;;;;;;9.25;8.02;;;;;;;18.22;100.00;96858.53;5004651;28;20065;-60
2021/08/25 01:38:04;;;;;;;10.45;7.85;;;;;;;18.32;100.00;96849.44;5007709;28;20092;-59
2021/08/25 01:40:32;;;;;;;9.60;8.10;;;;;;;18.42;100.00;96837.47;5003325;28;20104;-61
2021/08/25 01:43:01;;;;;;;10.68;8.38;;;;;;;18.51;100.00;96840.84;5001203;28;20061;-59
2021/08/25 01:45:29;;;;;;;10.63;8.85;;;;;;;18.12;100.00;96839.28;5005969;28;20062;-59
2021/08/25 01:47:59;;;;;;;11.00;7.90;;;;;;;18.39;100.00;96829.00;5001339;28;20100;-60
2021/08/25 01:50:28;;;;;;;9.80;8.13;;;;;;;18.24;100.00;96829.81;5003381;28;20513;-61
2021/08/25 01:52:56;;;;;;;9.23;8.00;;;;;;;18.19;100.00;96834.03;5001650;28;20070;-60
2021/08/25 01:55:24;;;;;;;10.88;7.95;;;;;;;18.24;100.00;96823.66;4997847;28;20074;-61
2021/08/25 01:57:53;;;;;;;9.02;8.05;;;;;;;18.29;100.00;96810.56;4981884;28;20077;-60
2021/08/25 02:00:21;;;;;;;13.18;8.73;;;;;;;18.08;100.00;96818.50;4974301;28;20065;-57
2021/08/25 02:02:50;;;;;;;10.43;8.10;;;;;;;18.26;100.00;96817.09;4975544;28;20556;-60
2021/08/25 02:05:20;;;;;;;12.00;8.82;;;;;;;18.18;100.00;96813.72;4997714;28;20465;-59
2021/08/25 02:07:48;;;;;;;13.13;9.07;;;;;;;18.05;100.00;96813.50;4996928;28;20054;-58
2021/08/25 02:10:17;;;;;;;11.77;9.10;;;;;;;17.76;100.00;96807.97;4994641;28;20535;-58
2021/08/25 02:12:45;;;;;;;11.90;9.30;;;;;;;17.78;100.00;96810.44;4993938;28;20080;-59
2021/08/25 02:15:13;;;;;;;13.05;9.40;;;;;;;17.69;100.00;96804.31;4995600;28;20365;-57
2021/08/25 02:17:42;;;;;;;11.40;9.73;;;;;;;17.42;100.00;96813.72;4998626;28;20078;-58
2021/08/25 02:20:11;;;;;;;11.80;9.60;;;;;;;17.60;100.00;96805.41;4998072;28;20401;-58
2021/08/25 02:22:41;;;;;;;12.57;9.88;;;;;;;17.49;100.00;96808.50;4971693;28;20089;-59
2021/08/25 02:25:09;;;;;;;13.05;9.68;;;;;;;17.39;100.00;96813.25;4987468;28;20068;-57
2021/08/25 02:27:38;;;;;;;11.32;9.65;;;;;;;17.56;100.00;96810.25;4993713;28;20057;-58
2021/08/25 02:30:07;;;;;;;12.60;9.70;;;;;;;17.53;100.00;96807.13;4987430;28;20066;-59
2021/08/25 02:32:35;;;;;;;15.20;10.02;;;;;;;17.56;100.00;96801.44;4973269;28;20714;-57
2021/08/25 02:35:04;;;;;;;11.20;9.98;;;;;;;17.48;100.00;96806.81;4974638;28;20079;-56
2021/08/25 02:37:33;;;;;;;14.48;10.93;;;;;;;17.31;100.00;96808.81;4978951;28;20066;-59
2021/08/25 02:40:02;;;;;;;13.73;10.20;;;;;;;17.03;100.00;96804.00;4994500;28;20070;-58
2021/08/25 02:42:31;;;;;;;12.63;9.77;;;;;;;17.34;100.00;96808.44;5005053;28;20116;-58
2021/08/25 02:44:59;;;;;;;12.65;10.27;;;;;;;17.22;100.00;96805.38;4996215;28;20073;-58
2021/08/25 02:47:27;;;;;;;12.30;9.75;;;;;;;17.23;100.00;96808.84;4977161;28;20144;-57
2021/08/25 02:49:56;;;;;;;12.27;10.23;;;;;;;16.92;100.00;96811.56;5001285;28;20315;-58
2021/08/25 02:52:24;;;;;;;14.48;11.35;;;;;;;16.87;100.00;96814.75;5002302;28;20077;-58
2021/08/25 02:54:52;;;;;;;14.07;11.10;;;;;;;17.03;100.00;96806.66;5000224;28;20750;-52
2021/08/25 02:57:22;;;;;;;14.05;10.93;;;;;;;16.77;100.00;96808.81;5001609;28;20532;-59
2021/08/25 02:59:50;;;;;;;14.23;10.67;;;;;;;16.71;100.00;96810.31;5002962;28;20089;-55
2021/08/25 03:02:19;;;;;;;17.40;11.00;;;;;;;16.72;100.00;96816.44;5003590;28;22488;-56
2021/08/25 03:04:47;;;;;;;12.55;10.88;;;;;;;16.84;100.00;96805.28;5006438;28;20069;-58
2021/08/25 03:07:16;;;;;;;16.73;11.35;;;;;;;16.63;100.00;96804.22;4983199;28;20047;-58
2021/08/25 03:09:44;;;;;;;14.10;10.98;;;;;;;16.81;100.00;96797.63;4991685;28;20696;-57
2021/08/25 03:12:12;;;;;;;13.55;11.23;;;;;;;16.71;100.00;96796.16;5003715;28;20519;-56
2021/08/25 03:14:42;;;;;;;13.13;10.40;;;;;;;16.70;100.00;96794.50;5007828;28;20543;-58
2021/08/25 03:17:13;;;;;;;13.50;11.20;;;;;;;16.56;100.00;96804.06;5006781;28;20116;-56
2021/08/25 03:19:41;;;;;;;;;;;;;;;16.44;100.00;96797.44;5010709;28;20507;-58
2021/08/25 03:22:09;;;;;;;13.70;10.25;;;;;;;16.60;100.00;96795.56;5000644;28;19957;-59
2021/08/25 03:24:37;;;;;;;13.35;10.55;;;;;;;16.21;100.00;96792.03;5008418;28;20096;-59
2021/08/25 03:27:06;;;;;;;13.07;10.98;;;;;;;16.54;100.00;96788.25;5004622;28;20053;-57
2021/08/25 03:29:34;;;;;;;16.38;12.15;;;;;;;16.34;100.00;96787.00;5005927;28;20127;-59
2021/08/25 03:32:04;;;;;;;14.52;11.20;;;;;;;16.32;100.00;96781.88;5009559;28;20069;-56
2021/08/25 03:34:36;;;;;;;13.65;10.48;;;;;;;16.49;100.00;96781.81;5007277;28;20058;-57
2021/08/25 03:37:04;;;;;;;15.90;11.00;;;;;;;16.31;100.00;96780.22;5005065;28;20065;-59
2021/08/25 03:39:33;;;;;;;12.88;11.07;;;;;;;16.35;100.00;96778.88;5005878;28;20467;-57
2021/08/25 03:42:01;;;;;;;14.30;11.05;;;;;;;16.50;100.00;96778.13;5006588;28;20497;-60
2021/08/25 03:44:29;;;;;;;12.85;10.45;;;;;;;16.42;100.00;96776.34;5005864;28;20074;-57
2021/08/25 03:46:58;;;;;;;13.25;10.77;;;;;;;16.46;100.00;96768.84;5002789;28;20222;-61
2021/08/25 03:49:27;;;;;;;13.40;11.10;;;;;;;16.44;100.00;96771.66;5007447;28;20073;-59
2021/08/25 03:51:56;;;;;;;14.33;11.13;;;;;;;16.27;100.00;96770.06;5008157;28;20068;-59
2021/08/25 03:54:24;;;;;;;15.50;11.20;;;;;;;16.29;100.00;96768.91;5003888;28;20546;-58
2021/08/25 03:56:53;;;;;;;13.48;10.95;;;;;;;16.26;100.00;96771.09;5006790;28;20061;-59
2021/08/25 03:59:21;;;;;;;15.07;11.38;;;;;;;16.22;100.00;96759.97;5007925;28;20085;-59
2021/08/25 04:01:50;;;;;;;14.43;11.32;;;;;;;16.27;100.00;96759.44;5003692;28;20470;-59
2021/08/25 04:04:19;;;;;;;14.20;11.18;;;;;;;16.05;100.00;96755.69;5003645;28;20065;-59
2021/08/25 04:06:49;;;;;;;14.88;12.25;;;;;;;16.34;100.00;96763.06;5007553;28;20066;-58
2021/08/25 04:09:17;;;;;;;15.00;11.85;;;;;;;16.32;100.00;96765.06;5003691;28;20080;-60
2021/08/25 04:11:45;;;;;;;14.95;11.23;;;;;;;16.28;100.00;96761.94;5005379;28;20085;-62
2021/08/25 04:14:14;;;;;;;15.60;11.55;;;;;;;16.04;100.00;96764.69;5007438;28;20461;-61
2021/08/25 04:16:44;;;;;;;14.70;11.57;;;;;;;16.22;100.00;96764.44;5003544;28;20127;-59
2021/08/25 04:19:12;;;;;;;15.18;11.52;;;;;;;16.47;100.00;96763.31;5003690;28;20073;-59
2021/08/25 04:21:40;;;;;;;15.23;10.80;;;;;;;16.47;100.00;96770.50;5005278;28;20069;-59
2021/08/25 04:24:10;;;;;;;14.82;12.15;;;;;;;16.57;100.00;96769.28;5006279;28;20069;-57
2021/08/25 04:26:38;;;;;;;14.83;12.13;;;;;;;16.16;100.00;96760.63;5006299;28;20088;-60
2021/08/25 04:29:07;;;;;;;16.38;12.15;;;;;;;16.11;100.00;96771.81;5005922;28;20085;-60
2021/08/25 04:31:35;;;;;;;14.20;11.25;;;;;;;16.29;100.00;96776.88;5005567;28;20072;-61
2021/08/25 04:34:03;;;;;;;14.60;12.13;;;;;;;16.11;100.00;96773.63;5002156;28;20515;-57
2021/08/25 04:36:32;;;;;;;17.00;11.98;;;;;;;16.22;100.00;96762.63;5004954;28;20558;-60
2021/08/25 04:39:00;;;;;;;17.80;11.85;;;;;;;16.26;100.00;96766.59;5003718;28;20074;-58
2021/08/25 04:41:30;;;;;;;15.93;11.73;;;;;;;16.30;100.00;96761.75;5010144;28;20484;-60
2021/08/25 04:43:58;;;;;;;15.48;12.25;;;;;;;16.31;100.00;96756.25;5002047;28;20347;-59
2021/08/25 04:46:26;;;;;;;14.38;11.40;;;;;;;16.39;100.00;96758.06;5005011;28;20536;-60
2021/08/25 04:48:55;;;;;;;13.45;11.30;;;;;;;16.48;100.00;96764.16;4998595;28;20070;-60
2021/08/25 04:51:23;;;;;;;17.17;11.18;;;;;;;16.23;100.00;96761.59;5005077;28;20069;-60
2021/08/25 04:53:52;;;;;;;14.98;11.90;;;;;;;16.53;100.00;96762.63;4995503;28;20058;-61
2021/08/25 04:56:20;;;;;;;13.55;10.68;;;;;;;16.43;100.00;96764.69;5000049;28;20094;-58
2021/08/25 04:58:50;;;;;;;13.13;10.60;;;;;;;16.45;100.00;96762.69;5004320;28;20072;-61
2021/08/25 05:01:18;;;;;;;13.73;10.77;;;;;;;17.71;100.00;96762.28;5017932;28;20069;-59
2021/08/25 05:03:47;;;;;;;14.07;10.80;;;;;;;18.46;100.00;96755.13;5005185;28;20068;-61
2021/08/25 05:06:17;;;;;;;11.40;9.82;;;;;;;19.04;100.00;96755.19;5005244;28;20073;-61
2021/08/25 05:08:45;;;;;;;11.05;9.30;;;;;;;18.91;100.00;96759.38;5006333;28;20077;-61
2021/08/25 05:11:14;;;;;;;11.75;8.13;;;;;;;19.27;100.00;96758.50;5007107;28;20077;-60
2021/08/25 05:13:42;;;;;;;9.77;7.85;;;;;;;19.74;100.00;96754.38;5004761;28;20118;-57
2021/08/25 05:16:13;;;;;;;11.57;7.70;;;;;;;20.25;100.00;96759.44;5002856;28;20077;-59
2021/08/25 05:18:42;;;;;;;9.05;7.30;;;;;;;20.01;100.00;96757.22;5006021;28;20057;-60
2021/08/25 05:21:10;;;;;;;8.90;7.30;;;;;;;19.76;100.00;96763.03;5001928;28;20326;-58
2021/08/25 05:23:39;;;;;;;8.95;7.13;;;;;;;19.82;100.00;96764.94;4999404;28;20070;-61
2021/08/25 05:26:08;;;;;;;9.05;7.03;;;;;;;20.68;100.00;96767.28;5004926;28;20065;-61
2021/08/25 05:28:36;;;;;;;7.47;6.60;;;;;;;19.33;100.00;96760.38;5003904;28;20084;-61
2021/08/25 05:31:04;;;;;;;11.20;7.47;;;;;;;18.49;100.00;96776.94;5003841;28;20441;-60
2021/08/25 05:33:34;;;;;;;10.60;7.50;;;;;;;18.18;100.00;96774.50;5006702;28;20081;-60
2021/08/25 05:36:03;;;;;;;10.17;7.90;;;;;;;17.73;100.00;96768.28;5002725;28;20073;-60
2021/08/25 05:38:31;;;;;;;9.30;7.88;;;;;;;17.77;100.00;96771.44;5003790;28;20504;-57
2021/08/25 05:40:59;;;;;;;11.10;8.02;;;;;;;17.83;100.00;96761.88;5006762;28;20073;-61
2021/08/25 05:43:28;;;;;;;10.75;8.05;;;;;;;18.31;100.00;96765.03;5005373;28;20042;-60
2021/08/25 05:45:56;;;;;;;11.02;8.07;;;;;;;17.73;100.00;96770.94;5004465;28;20054;-60
2021/08/25 05:48:25;;;;;;;8.85;7.65;;;;;;;17.87;100.00;96776.50;5001596;28;20121;-60
2021/08/25 05:50:55;;;;;;;9.50;7.90;;;;;;;17.91;100.00;96775.94;5020580;28;20464;-57
2021/08/25 05:53:24;;;;;;;11.30;8.48;;;;;;;17.70;100.00;96773.16;5007054;28;20445;-60
2021/08/25 05:55:52;;;;;;;10.52;8.23;;;;;;;18.17;100.00;96782.66;5002030;28;20061;-61
2021/08/25 05:58:22;;;;;;;10.85;8.38;;;;;;;18.11;100.00;96772.75;5001247;28;20076;-61
2021/08/25 06:00:50;;;;;;;11.48;8.07;;;;;;;18.15;100.00;96769.53;5010069;28;20061;-56
2021/08/25 06:03:19;;;;;;;9.85;7.68;;;;;;;17.93;100.00;96775.78;5004155;28;20069;-61
2021/08/25 06:05:47;;;;;;;11.50;7.57;;;;;;;17.70;100.00;96776.63;5002626;28;20065;-61
2021/08/25 06:08:17;;;;;;;10.05;8.13;;;;;;;17.72;100.00;96776.44;5007024;28;20104;-62
2021/08/25 06:10:45;;;;;;;8.63;7.72;;;;;;;17.92;100.00;96769.59;5006669;28;20113;-61
2021/08/25 06:13:14;;;;;;;10.70;8.23;;;;;;;18.29;100.00;96769.69;5000885;28;20566;-61
2021/08/25 06:15:42;;;;;;;10.15;8.20;;;;;;;17.65;100.00;96764.84;4993336;28;20070;-60
2021/08/25 06:18:10;;;;;;;12.32;7.95;;;;;;;17.58;100.00;96766.56;4982630;28;20076;-59
2021/08/25 06:20:39;;;;;;;10.20;7.53;;;;;;;18.08;100.00;96765.09;5004307;28;20081;-61
2021/08/25 06:23:07;;;;;;;9.63;7.53;;;;;;;18.28;100.00;96766.22;5011786;28;20086;-60
2021/08/25 06:25:37;;;;;;;11.15;7.82;;;;;;;18.37;100.00;96762.41;5005280;28;20088;-60
2021/08/25 06:28:05;;;;;;;11.00;8.10;;;;;;;18.49;100.00;96768.13;5003289;28;20066;-59
2021/08/25 06:30:34;;;;;;;12.07;8.27;;;;;;;18.57;100.00;96759.16;4996769;28;20489;-61
2021/08/25 06:33:02;;;;;;;10.98;8.23;;;;;;;18.40;100.00;96771.91;4990587;28;20069;-61
2021/08/25 06:35:30;;;;;;;11.85;8.00;;;;;;;18.46;100.00;96779.16;5005643;28;20081;-57
2021/08/25 06:37:59;;;;;;;10.57;7.60;;;;;;;18.43;100.00;96772.34;5009549;28;20096;-58
2021/08/25 06:40:27;;;;;;;8.60;7.45;;;;;;;18.69;100.00;96771.84;5003948;28;20069;-61
2021/08/25 06:43:15;;;;;;;10.05;7.97;;;;;;;18.33;100.00;96771.81;5003817;28;20103;-61
2021/08/25 06:45:44;;;;;;;8.65;7.10;;;;;;;18.81;100.00;96766.88;5004917;28;20061;-59
2021/08/25 06:48:12;;;;;;;11.65;8.00;;;;;;;18.99;100.00;96763.75;5004417;28;20093;-59
2021/08/25 06:50:41;;;;;;;9.90;7.50;;;;;;;18.37;100.00;96766.91;4987800;28;20496;-61
2021/08/25 06:53:09;;;;;;;9.10;7.82;;;;;;;19.68;100.00;96755.16;5010551;28;20092;-62
2021/08/25 06:55:40;;;;;;;9.65;7.22;;;;;;;18.92;100.00;96757.53;5005450;28;20632;-59
2021/08/25 06:58:08;;;;;;;9.35;7.30;;;;;;;18.50;100.00;96767.91;5006843;28;20076;-61
2021/08/25 07:00:38;;;;;;;11.18;7.10;;;;;;;18.80;100.00;96753.72;5004644;28;20133;-61
2021/08/25 07:03:07;;;;;;;8.32;6.85;;;;;;;19.06;100.00;96755.81;5007717;28;20077;-60
2021/08/25 07:05:36;;;;;;;9.60;7.35;;;;;;;19.36;100.00;96749.31;5007519;28;20069;-61
2021/08/25 07:08:04;;;;;;;10.60;7.22;;;;;;;19.80;100.00;96742.91;5010273;28;20523;-61
2021/08/25 07:10:32;;;;;;;8.60;7.10;;;;;;;19.53;100.00;96754.38;5007255;28;20452;-61
2021/08/25 07:13:02;;;;;;;8.20;6.97;;;;;;;20.58;100.00;96753.44;5009096;28;20065;-59
2021/08/25 07:15:30;;;;;;;8.80;5.95;;;;;;;19.99;100.00;96749.38;5005257;28;20080;-61
2021/08/25 07:18:00;;;;;;;7.78;6.18;;;;;;;20.21;100.00;96744.78;4999626;28;20065;-61
2021/08/25 07:20:44;;;;;;;7.53;5.90;;;;;;;19.98;100.00;96742.38;5005637;28;20061;-61
2021/08/25 07:23:13;;;;;;;8.90;6.28;;;;;;;20.31;100.00;96750.59;5010687;28;20465;-62
2021/08/25 07:25:42;;;;;;;7.93;6.00;;;;;;;19.80;100.00;96753.59;5005889;28;20053;-61
2021/08/25 07:28:11;;;;;;;7.13;5.45;;;;;;;19.75;100.00;96753.38;5003074;28;20455;-61
2021/08/25 07:30:39;;;;;;;7.75;5.50;;;;;;;19.67;100.00;96754.31;5000005;28;20073;-61
2021/08/25 07:33:12;;;;;;;6.78;5.47;;;;;;;20.81;100.00;96747.72;5009038;28;20073;-61
2021/08/25 07:35:41;;;;;;;9.05;4.90;;;;;;;20.50;100.00;96750.88;5005331;28;20081;-61
2021/08/25 07:38:09;;;;;;;7.30;5.15;;;;;;;19.84;100.00;96737.97;5003879;28;20555;-61
2021/08/25 07:40:37;;;;;;;8.48;5.88;;;;;;;20.73;100.00;96742.56;5007821;28;20062;-60
2021/08/25 07:43:06;;;;;;;7.47;5.43;;;;;;;21.60;99.47;96749.72;5006091;28;20077;-61
2021/08/25 07:45:36;;;;;;;7.43;5.82;;;;;;;21.64;91.19;96750.13;5005327;28;20128;-60
2021/08/25 07:48:05;;;;;;;6.85;4.78;;;;;;;21.32;92.51;96756.06;5001399;28;21551;-61
2021/08/25 07:50:35;;;;;;;7.22;5.20;;;;;;;20.99;92.68;96752.50;5008443;28;20077;-61
2021/08/25 07:53:03;;;;;;;6.70;5.47;;;;;;;21.27;91.61;96753.19;5007820;28;20085;-61
2021/08/25 07:55:32;;;;;;;9.30;5.38;;;;;;;21.53;89.33;96752.41;5005644;28;20073;-55
2021/08/25 07:58:00;;;;;;;6.55;4.50;;;;;;;21.30;91.20;96750.09;5002276;28;20065;-61
2021/08/25 08:00:28;;;;;;;6.72;4.90;;;;;;;22.32;82.63;96756.03;5005999;28;20066;-61
2021/08/25 08:02:57;;;;;;;7.45;5.13;;;;;;;21.65;91.64;96752.63;5005343;28;20065;-61
2021/08/25 08:05:26;;;;;;;7.03;4.97;;;;;;;21.10;92.48;96750.06;5009415;28;20076;-62
2021/08/25 08:07:57;;;;;;;6.60;4.68;;;;;;;21.03;88.95;96743.88;5007237;28;20065;-61
2021/08/25 08:10:25;;;;;;;7.20;4.75;;;;;;;20.96;90.96;96745.72;5004221;28;20081;-60
2021/08/25 08:12:53;;;;;;;7.63;4.70;;;;;;;20.48;89.91;96755.63;5002576;28;20455;-62
2021/08/25 08:15:22;;;;;;;8.20;4.72;;;;;;;21.66;85.44;96746.22;5012094;28;20081;-60
2021/08/25 08:17:50;;;;;;;7.00;4.82;;;;;;;21.17;83.48;96749.28;5004724;28;20069;-59
2021/08/25 08:20:19;;;;;;;7.35;4.72;;;;;;;21.73;83.55;96746.22;5009794;28;20081;-56
2021/08/25 08:22:47;;;;;;;5.85;4.75;;;;;;;21.84;79.68;96742.88;5006071;28;20278;-59
2021/08/25 08:25:17;;;;;;;7.10;4.57;;;;;;;21.88;76.88;96745.97;5005367;28;20547;-59
2021/08/25 08:27:45;;;;;;;6.53;4.97;;;;;;;21.98;75.20;96747.19;5006136;28;20076;-55
2021/08/25 08:30:14;;;;;;;5.75;4.00;;;;;;;21.69;74.28;96747.66;5002306;28;20062;-57
2021/08/25 08:32:42;;;;;;;5.95;4.60;;;;;;;22.34;74.66;96753.97;5007505;28;20077;-59
2021/08/25 08:35:11;;;;;;;7.97;4.90;;;;;;;21.89;75.15;96755.69;5005408;28;20105;-60
2021/08/25 08:37:39;;;;;;;6.35;4.47;;;;;;;22.96;71.90;96741.72;5003932;28;20069;-60
2021/08/25 08:40:08;;;;;;;6.30;4.45;;;;;;;22.35;75.20;96755.63;5009145;28;20057;-59
2021/08/25 08:42:38;;;;;;;8.93;4.63;;;;;;;21.95;70.87;96755.66;5011236;28;20076;-60
2021/08/25 08:45:10;;;;;;;6.90;4.15;;;;;;;21.97;68.18;96755.47;5006859;28;20057;-61
2021/08/25 08:47:39;;;;;;;5.47;3.90;;;;;;;23.19;62.68;96745.72;5011506;28;20077;-60
2021/08/25 08:50:07;;;;;;;6.65;4.25;;;;;;;22.24;61.64;96748.22;5007647;28;20082;-60
2021/08/25 08:52:36;;;;;;;6.30;3.90;;;;;;;21.24;65.23;96753.59;5003446;28;20076;-60
2021/08/25 08:55:05;;;;;;;7.13;4.38;;;;;;;21.78;65.40;96755.31;4988607;28;20066;-57
2021/08/25 08:57:34;;;;;;;7.63;4.43;;;;;;;22.22;61.28;96756.47;4999555;28;20065;-58
2021/08/25 09:00:05;;;;;;;7.60;4.07;;;;;;;21.74;65.42;96753.22;5003487;28;20066;-57
2021/08/25 09:02:37;;;;;;;7.93;4.30;;;;;;;22.57;60.03;96749.94;5010339;28;20073;-54
2021/08/25 09:05:27;;;;;;;5.18;3.92;;;;;;;21.91;61.72;96745.56;4984008;28;20089;-57
2021/08/25 09:07:58;;;;;;;8.35;4.25;;;;;;;22.15;60.32;96744.09;5013468;28;20088;-59
2021/08/25 09:10:28;;;;;;;5.63;4.00;;;;;;;22.13;57.96;96741.59;5006401;28;20077;-59
2021/08/25 09:12:59;;;;;;;7.03;4.45;;;;;;;21.41;62.22;96740.66;5009944;28;20080;-61
2021/08/25 09:15:31;;;;;;;5.20;3.90;;;;;;;21.87;61.44;96741.66;5001389;28;20157;-60
2021/08/25 09:18:02;;;;;;;6.45;3.80;;;;;;;21.87;63.42;96730.91;5007304;28;20054;-59
2021/08/25 09:20:34;;;;;;;5.75;4.10;;;;;;;21.61;62.50;96726.38;5008856;28;20092;-54
2021/08/25 09:23:13;;;;;;;6.55;4.40;;;;;;;21.60;63.78;96728.25;5003492;28;20383;-61
2021/08/25 09:25:43;;;;;;;6.77;4.17;;;;;;;22.63;58.75;96727.59;5014721;28;20537;-61
2021/08/25 09:28:13;;;;;;;7.35;4.47;;;;;;;22.75;56.64;96728.59;5002789;28;20092;-60
2021/08/25 09:30:59;;;;;;;6.85;4.10;;;;;;;22.01;56.19;96730.66;5004361;28;20053;-61
2021/08/25 09:33:31;;;;;;;6.35;4.03;;;;;;;22.89;54.40;96729.34;5008416;28;20097;-58
2021/08/25 09:36:02;;;;;;;7.93;4.35;;;;;;;22.46;53.82;96728.06;5009026;28;20068;-61
2021/08/25 09:38:32;;;;;;;9.05;4.70;;;;;;;21.76;56.41;96740.44;5013453;28;20088;-60
2021/08/25 09:41:05;;;;;;;9.73;4.10;;;;;;;22.01;54.99;96733.34;5006173;28;20281;-61
2021/08/25 09:43:41;;;;;;;7.47;4.10;;;;;;;22.40;51.89;96728.94;5010157;28;20456;-61
2021/08/25 09:46:13;;;;;;;7.55;4.53;;;;;;;22.37;52.61;96726.69;5001854;28;20062;-60
2021/08/25 09:48:44;;;;;;;6.97;4.35;;;;;;;21.31;58.58;96727.59;5004497;28;20527;-60
2021/08/25 09:51:13;;;;;;;5.35;4.00;;;;;;;21.69;55.68;96727.00;5002342;28;20073;-60
2021/08/25 09:53:44;;;;;;;6.85;4.20;;;;;;;22.85;51.18;96720.88;5005129;28;20081;-61
2021/08/25 09:56:21;;;;;;;;;;;;;;;22.98;49.27;96709.22;5012860;28;20084;-57
2021/08/25 09:58:50;;;;;;;11.38;4.90;;;;;;;23.51;51.03;96708.84;5007674;28;19957;-60
2021/08/25 10:01:20;;;;;;;8.82;4.90;;;;;;;23.44;48.33;96716.97;5003689;28;20543;-58
2021/08/25 10:03:49;;;;;;;8.25;4.80;;;;;;;22.78;46.86;96714.72;5009789;28;20057;-59
2021/08/25 10:06:20;;;;;;;8.00;4.43;;;;;;;23.39;47.31;96706.03;5010282;28;20080;-59
2021/08/25 10:08:49;;;;;;;7.60;4.75;;;;;;;22.81;46.33;96698.13;5003596;28;20538;-59
2021/08/25 10:11:18;;;;;;;8.13;4.97;;;;;;;22.64;48.16;96705.88;5008768;28;20081;-59
2021/08/25 10:13:47;;;;;;;8.50;5.30;;;;;;;21.84;50.46;96705.28;5008240;28;20072;-57
2021/08/25 10:16:38;;;;;;;6.50;4.65;;;;;;;22.81;48.24;96692.75;5007086;28;20492;-59
2021/08/25 10:19:30;;;;;;;8.77;4.65;;;;;;;23.85;44.70;96690.53;5002491;28;20073;-60
2021/08/25 10:22:00;;;;;;;9.27;5.13;;;;;;;22.57;47.15;96683.56;5006190;28;20062;-60
2021/08/25 10:24:28;;;;;;;7.00;4.68;;;;;;;22.72;47.25;96677.91;5009972;28;20084;-59
2021/08/25 10:27:11;;;;;;;10.50;4.97;;;;;;;22.71;44.72;96681.63;5007844;28;20080;-59
2021/08/25 10:30:04;;;;;;;9.10;4.82;;;;;;;23.29;47.61;96676.09;5007266;28;20080;-59
2021/08/25 10:32:35;;;;;;;8.43;4.85;;;;;;;23.04;48.20;96667.19;5004852;28;20459;-60
2021/08/25 10:35:18;;;;;;;;;;;;;;;23.36;44.51;96673.34;5012927;28;20511;-58
2021/08/25 10:37:47;;;;;;;8.63;5.47;;;;;;;22.46;45.64;96663.56;5004154;28;19948;-58
2021/08/25 10:40:17;;;;;;;8.35;5.00;;;;;;;23.25;44.29;96668.69;5006501;28;20073;-60
2021/08/25 10:42:54;;;;;;;8.52;5.10;;;;;;;22.76;47.36;96665.69;5008080;28;20077;-58
2021/08/25 10:45:55;;;;;;;11.30;5.47;;;;;;;22.64;47.81;96656.66;5012182;28;20057;-59
2021/08/25 10:48:45;;;;;;;8.15;4.75;;;;;;;22.00;50.88;96655.69;5000952;28;20551;-59
2021/08/25 10:51:36;;;;;;;7.50;4.70;;;;;;;22.25;50.39;96650.44;5005564;28;20798;-60
2021/08/25 10:54:07;;;;;;;8.70;5.32;;;;;;;23.63;47.28;96642.44;5005025;28;20135;-58
2021/08/25 10:56:38;;;;;;;10.50;5.82;;;;;;;23.19;45.82;96649.69;5008278;28;20074;-59
2021/08/25 10:59:08;;;;;;;8.23;4.75;;;;;;;22.71;48.05;96635.94;5010328;28;20080;-55
2021/08/25 11:01:39;;;;;;;10.77;5.55;;;;;;;22.83;45.69;96631.50;5010383;28;20534;-59
2021/08/25 11:04:12;;;;;;;9.75;5.32;;;;;;;23.45;45.05;96631.66;5007552;28;20065;-59
2021/08/25 11:06:44;;;;;;;9.80;5.13;;;;;;;22.93;47.33;96631.88;5014229;28;20056;-59
2021/08/25 11:09:26;;;;;;;8.90;5.15;;;;;;;23.18;46.11;96633.75;5010585;28;20066;-58
2021/08/25 11:12:00;;;;;;;8.48;5.25;;;;;;;24.15;44.49;96623.25;5010130;28;20069;-59
2021/08/25 11:14:34;;;;;;;9.07;5.40;;;;;;;23.62;44.66;96626.53;5008042;28;20081;-59
2021/08/25 11:17:11;;;;;;;8.63;5.30;;;;;;;23.41;46.08;96622.38;5012398;28;21363;-60
2021/08/25 11:19:43;;;;;;;8.15;5.07;;;;;;;23.76;45.07;96622.66;5002896;28;20069;-59
2021/08/25 11:22:18;;;;;;;10.98;4.97;;;;;;;22.84;46.50;96622.41;5006582;28;20061;-57
2021/08/25 11:24:48;;;;;;;7.85;5.00;;;;;;;23.53;42.92;96609.00;5005256;28;20058;-60
2021/08/25 11:27:22;;;;;;;8.75;5.00;;;;;;;23.33;43.04;96612.72;5009780;28;20062;-60
2021/08/25 11:30:06;;;;;;;9.10;5.50;;;;;;;23.83;43.02;96606.44;5007394;28;20092;-59
2021/08/25 11:32:51;;;;;;;;;;;;;;;23.60;43.01;96605.19;5009764;28;20072;-60
2021/08/25 11:35:27;;;;;;;8.77;5.15;;;;;;;23.09;45.10;96600.09;5011236;28;19960;-59
2021/08/25 11:37:57;;;;;;;8.13;4.97;;;;;;;23.82;46.16;96607.50;5012718;28;21343;-58